Ontonagon, MI (49953)

8:46 AM EST on December 03, 2016 (GMT -0500)
South side of town | | Change Station

Elev 1473 ft 46.87 °N, 89.31 °W | Updated 44 seconds ago

Overcast
Overcast
30.3 °F
Feels Like 30 °F
N
0.0
Wind Variable Wind from SSW

Today
High -- | Low -- °F
--% Chance of Precip.
Yesterday
High -- | Low -- °F
Precip. -- in
Pressure 30.26 in
Visibility 10.0 miles
Clouds Scattered Clouds 2500 ft
Mostly Cloudy 3200 ft
Overcast 4400 ft
Windchill 30 °F
Dew Point 29 °F
Humidity 96%
Rainfall 0.00 in
Snow Depth Not available.
8:24 AM 5:09 PM
Waxing Crescent, 15% visible
METAR KCMX 031253Z AUTO 00000KT 10SM SCT025 BKN032 OVC044 M01/M02 A3022 RMK AO2 SLP247 T10061022
Pressure 30.26 in
Visibility 10.0 miles
Clouds Scattered Clouds 2500 ft
Mostly Cloudy 3200 ft
Overcast 4400 ft
Windchill 30 °F
Dew Point 29 °F
Humidity 96%
Rainfall 0.00 in
Snow Depth Not available.
8:24 AM 5:09 PM
Waxing Crescent, 15% visible
METAR KCMX 031253Z AUTO 00000KT 10SM SCT025 BKN032 OVC044 M01/M02 A3022 RMK AO2 SLP247 T10061022

10-Day Weather Forecast

Almanac

Astronomy

Dec. 03, 2016 Rise Set
Actual Time
Civil Twilight
Nautical Twilight
Astronomical Twilight
Moon
Length of Visible Light
Length of Day
Tomorrow will be .
, % of the Moon is Illuminated

Today's Extremes

State Highs State Lows

Community

WunderPhotos

Upload Photos

1,955,446 photos uploaded!

WunderBlog® & News

Nearby

Air Quality

  Air Quality AQ Index Pollutant
Not available.

Snow Depth

Station Depth Elevation

Earthquake Activity

City Distance Mag. Time & Date
Minimum magnitude displayed is 2.5.

Coastal Water Temperatures

Place Temperature

Stations

Nearby Weather Stations

Station Location Temp. Windchill Dew Point Humidity Wind Precip. Elev Updated Type
                   

Watches & Warnings

There are currently no watches in effect.